Terminal Aerodrome Forecast
Issued by NWS

Home | Current Version | Previous Version | Text Only | Print | Product List | Glossary On
Versions: 1 2 3 4 5 6 7 8 9 10 11 12 13 14 15 16 17 18 19 20 21 22 23 24 25 26 27 28 29
000
FTUS41 KBUF 061100
TAFJHW
TAF
KJHW 061139Z 0612/0712 18004KT P6SM SCT250
     FM061500 22007KT P6SM FEW035 FEW250
     FM062100 22011KT P6SM SCT035 BKN200
     FM062300 21011KT P6SM BKN140
     FM070600 21010KT P6SM BKN040
     FM071100 23009KT P6SM OVC025
      AMD LTD TO CLD VIS AND WIND=

USA.gov is the U.S. government's official web portal to all federal, state and local government web resources and services.